sensor_id;sensor_type;location;lat;lon;timestamp;P1;durP1;ratioP1;P2;durP2;ratioP2
26098;SDS011;13860;52.370;6.764;2023-03-01T00:01:09;16.42;;;8.00;;
26098;SDS011;13860;52.370;6.764;2023-03-01T00:04:14;15.60;;;7.43;;
26098;SDS011;13860;52.370;6.764;2023-03-01T00:07:20;10.27;;;5.90;;
26098;SDS011;13860;52.370;6.764;2023-03-01T00:10:26;9.55;;;6.13;;
26098;SDS011;13860;52.370;6.764;2023-03-01T00:13:32;11.68;;;5.93;;
26098;SDS011;13860;52.370;6.764;2023-03-01T00:16:38;12.88;;;5.78;;
26098;SDS011;13860;52.370;6.764;2023-03-01T00:19:46;13.88;;;5.25;;
26098;SDS011;13860;52.370;6.764;2023-03-01T00:22:50;8.93;;;4.63;;
26098;SDS011;13860;52.370;6.764;2023-03-01T00:25:58;12.52;;;5.45;;
26098;SDS011;13860;52.370;6.764;2023-03-01T00:29:02;15.68;;;5.07;;
26098;SDS011;13860;52.370;6.764;2023-03-01T00:32:08;10.25;;;4.47;;
26098;SDS011;13860;52.370;6.764;2023-03-01T00:35:12;9.73;;;5.15;;
26098;SDS011;13860;52.370;6.764;2023-03-01T00:38:18;9.98;;;5.35;;
26098;SDS011;13860;52.370;6.764;2023-03-01T00:41:24;7.32;;;5.22;;
26098;SDS011;13860;52.370;6.764;2023-03-01T00:44:31;13.40;;;5.25;;
26098;SDS011;13860;52.370;6.764;2023-03-01T00:47:35;10.00;;;4.63;;
26098;SDS011;13860;52.370;6.764;2023-03-01T00:50:41;11.30;;;4.88;;
26098;SDS011;13860;52.370;6.764;2023-03-01T00:53:45;8.32;;;4.53;;
26098;SDS011;13860;52.370;6.764;2023-03-01T00:56:54;10.15;;;4.80;;
26098;SDS011;13860;52.370;6.764;2023-03-01T00:59:58;15.13;;;5.18;;
26098;SDS011;13860;52.370;6.764;2023-03-01T01:03:04;7.85;;;4.63;;
26098;SDS011;13860;52.370;6.764;2023-03-01T01:06:12;9.52;;;4.57;;
26098;SDS011;13860;52.370;6.764;2023-03-01T01:09:19;7.72;;;4.60;;
26098;SDS011;13860;52.370;6.764;2023-03-01T01:12:25;11.15;;;5.03;;
26098;SDS011;13860;52.370;6.764;2023-03-01T01:15:32;8.05;;;4.75;;
26098;SDS011;13860;52.370;6.764;2023-03-01T01:18:37;7.30;;;4.63;;
26098;SDS011;13860;52.370;6.764;2023-03-01T01:21:44;7.82;;;4.30;;
26098;SDS011;13860;52.370;6.764;2023-03-01T01:24:49;7.90;;;4.93;;
26098;SDS011;13860;52.370;6.764;2023-03-01T01:27:57;9.57;;;4.72;;
26098;SDS011;13860;52.370;6.764;2023-03-01T01:31:01;7.78;;;4.80;;
26098;SDS011;13860;52.370;6.764;2023-03-01T01:34:08;7.65;;;4.25;;
26098;SDS011;13860;52.370;6.764;2023-03-01T01:37:17;8.38;;;4.85;;
26098;SDS011;13860;52.370;6.764;2023-03-01T01:40:23;8.57;;;4.70;;
26098;SDS011;13860;52.370;6.764;2023-03-01T01:43:30;12.85;;;5.03;;
26098;SDS011;13860;52.370;6.764;2023-03-01T01:46:38;12.75;;;4.63;;
26098;SDS011;13860;52.370;6.764;2023-03-01T01:49:44;8.15;;;4.90;;
26098;SDS011;13860;52.370;6.764;2023-03-01T01:52:54;6.13;;;4.15;;
26098;SDS011;13860;52.370;6.764;2023-03-01T01:55:58;10.95;;;4.88;;
26098;SDS011;13860;52.370;6.764;2023-03-01T01:59:08;7.53;;;4.90;;
26098;SDS011;13860;52.370;6.764;2023-03-01T02:02:13;8.98;;;4.93;;
26098;SDS011;13860;52.370;6.764;2023-03-01T02:05:20;6.63;;;4.30;;
26098;SDS011;13860;52.370;6.764;2023-03-01T02:08:30;10.00;;;5.15;;
26098;SDS011;13860;52.370;6.764;2023-03-01T02:11:38;8.02;;;4.25;;
26098;SDS011;13860;52.370;6.764;2023-03-01T02:14:45;8.00;;;4.53;;
26098;SDS011;13860;52.370;6.764;2023-03-01T02:17:51;10.38;;;5.28;;
26098;SDS011;13860;52.370;6.764;2023-03-01T02:21:00;8.15;;;4.90;;
26098;SDS011;13860;52.370;6.764;2023-03-01T02:24:16;10.00;;;4.63;;
26098;SDS011;13860;52.370;6.764;2023-03-01T02:27:31;6.70;;;4.15;;
26098;SDS011;13860;52.370;6.764;2023-03-01T02:30:44;8.85;;;4.65;;
26098;SDS011;13860;52.370;6.764;2023-03-01T02:34:04;9.93;;;4.45;;
26098;SDS011;13860;52.370;6.764;2023-03-01T02:37:12;8.95;;;4.95;;
26098;SDS011;13860;52.370;6.764;2023-03-01T02:40:21;9.07;;;4.70;;
26098;SDS011;13860;52.370;6.764;2023-03-01T02:43:29;6.05;;;4.63;;
26098;SDS011;13860;52.370;6.764;2023-03-01T02:46:41;8.43;;;4.60;;
26098;SDS011;13860;52.370;6.764;2023-03-01T02:49:48;6.40;;;4.03;;
26098;SDS011;13860;52.370;6.764;2023-03-01T02:52:53;9.63;;;4.55;;
26098;SDS011;13860;52.370;6.764;2023-03-01T02:56:03;7.50;;;4.57;;
26098;SDS011;13860;52.370;6.764;2023-03-01T02:59:15;7.88;;;4.57;;
26098;SDS011;13860;52.370;6.764;2023-03-01T03:02:25;10.93;;;4.53;;
26098;SDS011;13860;52.370;6.764;2023-03-01T03:06:05;10.50;;;4.90;;
26098;SDS011;13860;52.370;6.764;2023-03-01T03:09:12;9.43;;;4.40;;
26098;SDS011;13860;52.370;6.764;2023-03-01T03:12:17;7.93;;;4.55;;
26098;SDS011;13860;52.370;6.764;2023-03-01T03:15:23;13.35;;;5.00;;
26098;SDS011;13860;52.370;6.764;2023-03-01T03:18:31;8.80;;;4.88;;
26098;SDS011;13860;52.370;6.764;2023-03-01T03:21:37;10.90;;;5.88;;
26098;SDS011;13860;52.370;6.764;2023-03-01T03:24:43;8.68;;;4.53;;
26098;SDS011;13860;52.370;6.764;2023-03-01T03:27:50;7.40;;;4.70;;
26098;SDS011;13860;52.370;6.764;2023-03-01T03:30:57;9.07;;;4.35;;
26098;SDS011;13860;52.370;6.764;2023-03-01T03:34:08;9.00;;;4.72;;
26098;SDS011;13860;52.370;6.764;2023-03-01T03:37:18;7.43;;;4.60;;
26098;SDS011;13860;52.370;6.764;2023-03-01T03:40:38;11.88;;;5.55;;
26098;SDS011;13860;52.370;6.764;2023-03-01T03:43:43;7.35;;;4.53;;
26098;SDS011;13860;52.370;6.764;2023-03-01T03:46:49;9.27;;;5.40;;
26098;SDS011;13860;52.370;6.764;2023-03-01T03:49:55;9.90;;;5.32;;
26098;SDS011;13860;52.370;6.764;2023-03-01T03:53:02;8.13;;;5.07;;
26098;SDS011;13860;52.370;6.764;2023-03-01T03:56:07;10.68;;;4.88;;
26098;SDS011;13860;52.370;6.764;2023-03-01T03:59:14;9.40;;;5.15;;
26098;SDS011;13860;52.370;6.764;2023-03-01T04:02:18;12.00;;;5.72;;
26098;SDS011;13860;52.370;6.764;2023-03-01T04:05:27;9.00;;;5.15;;
26098;SDS011;13860;52.370;6.764;2023-03-01T04:08:31;8.00;;;5.30;;
26098;SDS011;13860;52.370;6.764;2023-03-01T04:11:38;8.98;;;5.78;;
26098;SDS011;13860;52.370;6.764;2023-03-01T04:14:42;12.60;;;5.70;;
26098;SDS011;13860;52.370;6.764;2023-03-01T04:17:48;8.70;;;5.65;;
26098;SDS011;13860;52.370;6.764;2023-03-01T04:20:55;13.73;;;5.85;;
26098;SDS011;13860;52.370;6.764;2023-03-01T04:24:02;11.30;;;5.22;;
26098;SDS011;13860;52.370;6.764;2023-03-01T04:27:06;12.80;;;5.03;;
26098;SDS011;13860;52.370;6.764;2023-03-01T04:30:12;13.30;;;6.00;;
26098;SDS011;13860;52.370;6.764;2023-03-01T04:33:16;8.90;;;5.10;;
26098;SDS011;13860;52.370;6.764;2023-03-01T04:36:25;8.30;;;4.95;;
26098;SDS011;13860;52.370;6.764;2023-03-01T04:39:32;8.60;;;5.25;;
26098;SDS011;13860;52.370;6.764;2023-03-01T04:42:48;6.88;;;4.63;;
26098;SDS011;13860;52.370;6.764;2023-03-01T04:45:52;9.23;;;5.22;;
26098;SDS011;13860;52.370;6.764;2023-03-01T04:48:58;8.30;;;4.80;;
26098;SDS011;13860;52.370;6.764;2023-03-01T04:52:04;10.48;;;5.47;;
26098;SDS011;13860;52.370;6.764;2023-03-01T04:55:11;9.35;;;5.60;;
26098;SDS011;13860;52.370;6.764;2023-03-01T04:58:15;12.40;;;5.82;;
26098;SDS011;13860;52.370;6.764;2023-03-01T05:01:20;8.75;;;4.80;;
26098;SDS011;13860;52.370;6.764;2023-03-01T05:04:25;9.32;;;5.28;;
26098;SDS011;13860;52.370;6.764;2023-03-01T05:07:33;8.68;;;5.45;;
26098;SDS011;13860;52.370;6.764;2023-03-01T05:10:37;13.05;;;5.70;;
26098;SDS011;13860;52.370;6.764;2023-03-01T05:13:43;9.32;;;5.45;;
26098;SDS011;13860;52.370;6.764;2023-03-01T05:16:48;11.57;;;6.18;;
26098;SDS011;13860;52.370;6.764;2023-03-01T05:19:53;11.25;;;5.65;;
26098;SDS011;13860;52.370;6.764;2023-03-01T05:23:02;9.77;;;5.47;;
26098;SDS011;13860;52.370;6.764;2023-03-01T05:26:10;10.55;;;5.30;;
26098;SDS011;13860;52.370;6.764;2023-03-01T05:29:30;13.43;;;5.50;;
26098;SDS011;13860;52.370;6.764;2023-03-01T05:32:38;10.77;;;5.95;;
26098;SDS011;13860;52.370;6.764;2023-03-01T05:35:44;12.60;;;5.72;;
26098;SDS011;13860;52.370;6.764;2023-03-01T05:38:53;10.40;;;5.68;;
26098;SDS011;13860;52.370;6.764;2023-03-01T05:41:58;10.93;;;5.60;;
26098;SDS011;13860;52.370;6.764;2023-03-01T05:45:05;12.35;;;5.85;;
26098;SDS011;13860;52.370;6.764;2023-03-01T05:48:10;12.82;;;5.75;;
26098;SDS011;13860;52.370;6.764;2023-03-01T05:51:17;14.05;;;5.90;;
26098;SDS011;13860;52.370;6.764;2023-03-01T05:54:25;11.65;;;5.35;;
26098;SDS011;13860;52.370;6.764;2023-03-01T05:57:31;10.32;;;5.35;;
26098;SDS011;13860;52.370;6.764;2023-03-01T06:00:35;9.85;;;5.60;;
26098;SDS011;13860;52.370;6.764;2023-03-01T06:03:41;10.75;;;5.13;;
26098;SDS011;13860;52.370;6.764;2023-03-01T06:06:45;13.57;;;5.75;;
26098;SDS011;13860;52.370;6.764;2023-03-01T06:09:53;11.20;;;5.43;;
26098;SDS011;13860;52.370;6.764;2023-03-01T06:12:57;13.98;;;5.65;;
26098;SDS011;13860;52.370;6.764;2023-03-01T06:16:04;16.90;;;7.20;;
26098;SDS011;13860;52.370;6.764;2023-03-01T06:19:09;13.50;;;7.22;;
26098;SDS011;13860;52.370;6.764;2023-03-01T06:22:15;17.48;;;6.40;;
26098;SDS011;13860;52.370;6.764;2023-03-01T06:25:21;13.30;;;6.35;;
26098;SDS011;13860;52.370;6.764;2023-03-01T06:28:29;9.70;;;5.47;;
26098;SDS011;13860;52.370;6.764;2023-03-01T06:31:33;12.15;;;5.35;;
26098;SDS011;13860;52.370;6.764;2023-03-01T06:34:39;9.00;;;5.18;;
26098;SDS011;13860;52.370;6.764;2023-03-01T06:37:43;9.15;;;5.55;;
26098;SDS011;13860;52.370;6.764;2023-03-01T06:40:54;9.02;;;5.47;;
26098;SDS011;13860;52.370;6.764;2023-03-01T06:43:59;12.15;;;5.85;;
26098;SDS011;13860;52.370;6.764;2023-03-01T06:47:05;10.45;;;5.38;;
26098;SDS011;13860;52.370;6.764;2023-03-01T06:50:10;10.90;;;5.85;;
26098;SDS011;13860;52.370;6.764;2023-03-01T06:53:16;9.63;;;5.55;;
26098;SDS011;13860;52.370;6.764;2023-03-01T06:56:22;9.05;;;5.07;;
26098;SDS011;13860;52.370;6.764;2023-03-01T06:59:28;14.18;;;6.35;;
26098;SDS011;13860;52.370;6.764;2023-03-01T07:02:32;13.63;;;5.80;;
26098;SDS011;13860;52.370;6.764;2023-03-01T07:05:38;21.25;;;6.05;;
26098;SDS011;13860;52.370;6.764;2023-03-01T07:08:43;13.02;;;5.03;;
26098;SDS011;13860;52.370;6.764;2023-03-01T07:11:51;11.13;;;5.88;;
26098;SDS011;13860;52.370;6.764;2023-03-01T07:14:54;13.50;;;5.68;;
26098;SDS011;13860;52.370;6.764;2023-03-01T07:18:00;13.80;;;5.60;;
26098;SDS011;13860;52.370;6.764;2023-03-01T07:21:05;10.75;;;6.13;;
26098;SDS011;13860;52.370;6.764;2023-03-01T07:24:11;10.50;;;5.50;;
26098;SDS011;13860;52.370;6.764;2023-03-01T07:27:17;13.45;;;6.25;;
26098;SDS011;13860;52.370;6.764;2023-03-01T07:30:23;12.45;;;6.43;;
26098;SDS011;13860;52.370;6.764;2023-03-01T07:33:29;17.20;;;6.10;;
26098;SDS011;13860;52.370;6.764;2023-03-01T07:36:35;14.93;;;6.50;;
26098;SDS011;13860;52.370;6.764;2023-03-01T07:39:40;13.90;;;6.97;;
26098;SDS011;13860;52.370;6.764;2023-03-01T07:42:48;13.98;;;6.68;;
26098;SDS011;13860;52.370;6.764;2023-03-01T07:45:52;15.18;;;6.85;;
26098;SDS011;13860;52.370;6.764;2023-03-01T07:48:58;11.45;;;6.90;;
26098;SDS011;13860;52.370;6.764;2023-03-01T07:52:02;14.60;;;7.85;;
26098;SDS011;13860;52.370;6.764;2023-03-01T07:55:09;18.63;;;8.10;;
26098;SDS011;13860;52.370;6.764;2023-03-01T07:58:15;13.77;;;7.50;;
26098;SDS011;13860;52.370;6.764;2023-03-01T08:01:21;14.70;;;8.27;;
26098;SDS011;13860;52.370;6.764;2023-03-01T08:04:25;17.67;;;8.35;;
26098;SDS011;13860;52.370;6.764;2023-03-01T08:07:32;16.45;;;6.90;;
26098;SDS011;13860;52.370;6.764;2023-03-01T08:10:36;10.80;;;6.15;;
26098;SDS011;13860;52.370;6.764;2023-03-01T08:13:46;14.77;;;7.53;;
26098;SDS011;13860;52.370;6.764;2023-03-01T08:16:54;18.55;;;7.65;;
26098;SDS011;13860;52.370;6.764;2023-03-01T08:20:00;12.50;;;6.97;;
26098;SDS011;13860;52.370;6.764;2023-03-01T08:23:07;11.85;;;6.00;;
26098;SDS011;13860;52.370;6.764;2023-03-01T08:26:14;10.73;;;6.43;;
26098;SDS011;13860;52.370;6.764;2023-03-01T08:29:22;13.20;;;6.53;;
26098;SDS011;13860;52.370;6.764;2023-03-01T08:32:29;11.05;;;6.25;;
26098;SDS011;13860;52.370;6.764;2023-03-01T08:35:33;14.73;;;7.30;;
26098;SDS011;13860;52.370;6.764;2023-03-01T08:38:39;11.73;;;6.55;;
26098;SDS011;13860;52.370;6.764;2023-03-01T08:41:46;12.15;;;6.50;;
26098;SDS011;13860;52.370;6.764;2023-03-01T08:44:54;12.18;;;6.53;;
26098;SDS011;13860;52.370;6.764;2023-03-01T08:47:58;11.98;;;6.07;;
26098;SDS011;13860;52.370;6.764;2023-03-01T08:51:07;10.73;;;5.45;;
26098;SDS011;13860;52.370;6.764;2023-03-01T08:54:14;14.52;;;6.47;;
26098;SDS011;13860;52.370;6.764;2023-03-01T08:57:21;13.10;;;6.30;;
26098;SDS011;13860;52.370;6.764;2023-03-01T09:00:27;10.20;;;7.15;;
26098;SDS011;13860;52.370;6.764;2023-03-01T09:03:33;9.32;;;5.82;;
26098;SDS011;13860;52.370;6.764;2023-03-01T09:06:38;8.02;;;5.30;;
26098;SDS011;13860;52.370;6.764;2023-03-01T09:09:44;9.77;;;5.47;;
26098;SDS011;13860;52.370;6.764;2023-03-01T09:12:48;7.65;;;4.93;;
26098;SDS011;13860;52.370;6.764;2023-03-01T09:15:56;9.85;;;4.57;;
26098;SDS011;13860;52.370;6.764;2023-03-01T09:19:00;8.93;;;3.97;;
26098;SDS011;13860;52.370;6.764;2023-03-01T09:22:05;9.52;;;4.97;;
26098;SDS011;13860;52.370;6.764;2023-03-01T09:25:10;9.05;;;4.70;;
26098;SDS011;13860;52.370;6.764;2023-03-01T09:28:15;7.43;;;4.45;;
26098;SDS011;13860;52.370;6.764;2023-03-01T09:31:32;11.43;;;4.53;;
26098;SDS011;13860;52.370;6.764;2023-03-01T09:34:38;15.00;;;4.40;;
26098;SDS011;13860;52.370;6.764;2023-03-01T09:37:55;10.10;;;4.63;;
26098;SDS011;13860;52.370;6.764;2023-03-01T09:41:01;11.23;;;4.70;;
26098;SDS011;13860;52.370;6.764;2023-03-01T09:44:08;9.15;;;4.70;;
26098;SDS011;13860;52.370;6.764;2023-03-01T09:47:22;10.40;;;4.65;;
26098;SDS011;13860;52.370;6.764;2023-03-01T09:50:32;9.25;;;4.45;;
26098;SDS011;13860;52.370;6.764;2023-03-01T09:53:43;6.97;;;3.95;;
26098;SDS011;13860;52.370;6.764;2023-03-01T10:00:07;9.75;;;3.60;;
26098;SDS011;13860;52.370;6.764;2023-03-01T10:03:27;6.85;;;3.80;;
26098;SDS011;13860;52.370;6.764;2023-03-01T10:06:40;7.72;;;3.92;;
26098;SDS011;13860;52.370;6.764;2023-03-01T10:09:48;7.28;;;3.65;;
26098;SDS011;13860;52.370;6.764;2023-03-01T10:12:54;10.20;;;4.18;;
26098;SDS011;13860;52.370;6.764;2023-03-01T10:16:01;7.80;;;4.10;;
26098;SDS011;13860;52.370;6.764;2023-03-01T10:19:20;8.77;;;4.18;;
26098;SDS011;13860;52.370;6.764;2023-03-01T10:22:28;7.55;;;4.20;;
26098;SDS011;13860;52.370;6.764;2023-03-01T10:25:39;7.63;;;4.30;;
26098;SDS011;13860;52.370;6.764;2023-03-01T10:28:52;7.72;;;4.05;;
26098;SDS011;13860;52.370;6.764;2023-03-01T10:32:06;8.60;;;4.18;;
26098;SDS011;13860;52.370;6.764;2023-03-01T10:35:18;13.73;;;4.03;;
26098;SDS011;13860;52.370;6.764;2023-03-01T10:38:26;5.22;;;3.15;;
26098;SDS011;13860;52.370;6.764;2023-03-01T10:41:34;7.43;;;3.60;;
26098;SDS011;13860;52.370;6.764;2023-03-01T10:44:57;6.72;;;3.45;;
26098;SDS011;13860;52.370;6.764;2023-03-01T10:51:29;8.25;;;3.58;;
26098;SDS011;13860;52.370;6.764;2023-03-01T10:54:33;7.00;;;3.78;;
26098;SDS011;13860;52.370;6.764;2023-03-01T10:57:39;6.10;;;3.78;;
26098;SDS011;13860;52.370;6.764;2023-03-01T11:00:47;8.70;;;4.00;;
26098;SDS011;13860;52.370;6.764;2023-03-01T11:04:03;8.15;;;3.85;;
26098;SDS011;13860;52.370;6.764;2023-03-01T11:07:16;10.38;;;3.60;;
26098;SDS011;13860;52.370;6.764;2023-03-01T11:10:26;8.90;;;3.60;;
26098;SDS011;13860;52.370;6.764;2023-03-01T11:13:31;6.97;;;3.05;;
26098;SDS011;13860;52.370;6.764;2023-03-01T11:16:37;4.15;;;2.72;;
26098;SDS011;13860;52.370;6.764;2023-03-01T11:19:42;7.00;;;2.83;;
26098;SDS011;13860;52.370;6.764;2023-03-01T11:23:09;5.55;;;2.60;;
26098;SDS011;13860;52.370;6.764;2023-03-01T11:26:15;5.95;;;2.92;;
26098;SDS011;13860;52.370;6.764;2023-03-01T11:29:27;5.13;;;2.70;;
26098;SDS011;13860;52.370;6.764;2023-03-01T11:32:50;6.88;;;2.88;;
26098;SDS011;13860;52.370;6.764;2023-03-01T11:36:07;5.90;;;2.90;;
26098;SDS011;13860;52.370;6.764;2023-03-01T11:39:24;5.25;;;3.08;;
26098;SDS011;13860;52.370;6.764;2023-03-01T11:42:40;7.55;;;3.55;;
26098;SDS011;13860;52.370;6.764;2023-03-01T11:45:54;7.43;;;3.25;;
26098;SDS011;13860;52.370;6.764;2023-03-01T11:49:18;4.57;;;2.63;;
26098;SDS011;13860;52.370;6.764;2023-03-01T11:52:45;6.63;;;3.20;;
26098;SDS011;13860;52.370;6.764;2023-03-01T11:56:05;8.63;;;3.35;;
26098;SDS011;13860;52.370;6.764;2023-03-01T11:59:29;4.85;;;2.70;;
26098;SDS011;13860;52.370;6.764;2023-03-01T12:03:01;5.70;;;3.08;;
26098;SDS011;13860;52.370;6.764;2023-03-01T12:06:26;5.28;;;2.65;;
26098;SDS011;13860;52.370;6.764;2023-03-01T12:09:52;7.28;;;3.55;;
26098;SDS011;13860;52.370;6.764;2023-03-01T12:13:23;6.78;;;2.70;;
26098;SDS011;13860;52.370;6.764;2023-03-01T12:16:51;7.78;;;3.05;;
26098;SDS011;13860;52.370;6.764;2023-03-01T12:20:19;7.05;;;3.35;;
26098;SDS011;13860;52.370;6.764;2023-03-01T12:23:46;5.13;;;2.67;;
26098;SDS011;13860;52.370;6.764;2023-03-01T12:27:08;7.72;;;3.00;;
26098;SDS011;13860;52.370;6.764;2023-03-01T12:30:38;7.47;;;2.95;;
26098;SDS011;13860;52.370;6.764;2023-03-01T12:33:53;6.40;;;2.92;;
26098;SDS011;13860;52.370;6.764;2023-03-01T12:40:21;5.55;;;3.17;;
26098;SDS011;13860;52.370;6.764;2023-03-01T12:43:47;6.25;;;3.20;;
26098;SDS011;13860;52.370;6.764;2023-03-01T12:47:07;6.53;;;3.47;;
26098;SDS011;13860;52.370;6.764;2023-03-01T12:50:21;7.97;;;3.08;;
26098;SDS011;13860;52.370;6.764;2023-03-01T12:53:34;8.65;;;2.92;;
26098;SDS011;13860;52.370;6.764;2023-03-01T12:56:44;7.38;;;3.53;;
26098;SDS011;13860;52.370;6.764;2023-03-01T12:59:59;10.70;;;3.40;;
26098;SDS011;13860;52.370;6.764;2023-03-01T13:03:18;5.60;;;3.22;;
26098;SDS011;13860;52.370;6.764;2023-03-01T13:06:29;7.82;;;3.20;;
26098;SDS011;13860;52.370;6.764;2023-03-01T13:09:48;8.88;;;3.05;;
26098;SDS011;13860;52.370;6.764;2023-03-01T13:13:11;5.95;;;3.17;;
26098;SDS011;13860;52.370;6.764;2023-03-01T13:19:57;10.35;;;3.38;;
26098;SDS011;13860;52.370;6.764;2023-03-01T13:23:06;12.20;;;3.40;;
26098;SDS011;13860;52.370;6.764;2023-03-01T13:26:14;8.35;;;3.08;;
26098;SDS011;13860;52.370;6.764;2023-03-01T13:29:25;8.73;;;3.28;;
26098;SDS011;13860;52.370;6.764;2023-03-01T13:32:30;8.30;;;2.85;;
26098;SDS011;13860;52.370;6.764;2023-03-01T13:35:48;7.35;;;3.05;;
26098;SDS011;13860;52.370;6.764;2023-03-01T13:38:54;11.38;;;3.45;;
26098;SDS011;13860;52.370;6.764;2023-03-01T13:42:02;8.10;;;3.63;;
26098;SDS011;13860;52.370;6.764;2023-03-01T13:48:30;5.30;;;3.38;;
26098;SDS011;13860;52.370;6.764;2023-03-01T13:51:36;7.22;;;3.45;;
26098;SDS011;13860;52.370;6.764;2023-03-01T13:54:42;9.10;;;2.97;;
26098;SDS011;13860;52.370;6.764;2023-03-01T14:00:58;5.18;;;2.90;;
26098;SDS011;13860;52.370;6.764;2023-03-01T14:04:17;6.68;;;3.00;;
26098;SDS011;13860;52.370;6.764;2023-03-01T14:07:27;6.70;;;3.20;;
26098;SDS011;13860;52.370;6.764;2023-03-01T14:10:35;7.53;;;3.03;;
26098;SDS011;13860;52.370;6.764;2023-03-01T14:13:58;6.15;;;3.20;;
26098;SDS011;13860;52.370;6.764;2023-03-01T14:17:23;10.52;;;3.22;;
26098;SDS011;13860;52.370;6.764;2023-03-01T14:20:46;13.93;;;3.22;;
26098;SDS011;13860;52.370;6.764;2023-03-01T14:23:56;5.32;;;3.03;;
26098;SDS011;13860;52.370;6.764;2023-03-01T14:27:03;8.10;;;3.50;;
26098;SDS011;13860;52.370;6.764;2023-03-01T14:30:10;6.15;;;2.90;;
26098;SDS011;13860;52.370;6.764;2023-03-01T14:33:24;6.82;;;2.85;;
26098;SDS011;13860;52.370;6.764;2023-03-01T14:36:30;4.20;;;2.92;;
26098;SDS011;13860;52.370;6.764;2023-03-01T14:39:42;6.25;;;3.05;;
26098;SDS011;13860;52.370;6.764;2023-03-01T14:42:49;10.77;;;3.90;;
26098;SDS011;13860;52.370;6.764;2023-03-01T14:45:56;3.97;;;2.92;;
26098;SDS011;13860;52.370;6.764;2023-03-01T14:49:01;9.15;;;3.15;;
26098;SDS011;13860;52.370;6.764;2023-03-01T14:52:17;5.10;;;2.95;;
26098;SDS011;13860;52.370;6.764;2023-03-01T14:55:28;9.25;;;3.58;;
26098;SDS011;13860;52.370;6.764;2023-03-01T14:58:38;12.23;;;3.25;;
26098;SDS011;13860;52.370;6.764;2023-03-01T15:04:49;5.80;;;3.25;;
26098;SDS011;13860;52.370;6.764;2023-03-01T15:07:56;4.60;;;3.22;;
26098;SDS011;13860;52.370;6.764;2023-03-01T15:11:17;5.30;;;3.10;;
26098;SDS011;13860;52.370;6.764;2023-03-01T15:14:26;9.10;;;2.88;;
26098;SDS011;13860;52.370;6.764;2023-03-01T15:17:34;7.90;;;3.13;;
26098;SDS011;13860;52.370;6.764;2023-03-01T15:20:40;6.47;;;3.55;;
26098;SDS011;13860;52.370;6.764;2023-03-01T15:23:48;5.85;;;3.25;;
26098;SDS011;13860;52.370;6.764;2023-03-01T15:26:57;5.50;;;3.13;;
26098;SDS011;13860;52.370;6.764;2023-03-01T15:30:18;6.32;;;3.40;;
26098;SDS011;13860;52.370;6.764;2023-03-01T15:33:31;10.68;;;4.00;;
26098;SDS011;13860;52.370;6.764;2023-03-01T15:36:42;5.47;;;2.80;;
26098;SDS011;13860;52.370;6.764;2023-03-01T15:39:52;5.40;;;3.03;;
26098;SDS011;13860;52.370;6.764;2023-03-01T15:43:02;7.22;;;3.30;;
26098;SDS011;13860;52.370;6.764;2023-03-01T15:46:13;6.72;;;3.63;;
26098;SDS011;13860;52.370;6.764;2023-03-01T15:49:34;5.93;;;3.42;;
26098;SDS011;13860;52.370;6.764;2023-03-01T15:53:05;8.95;;;3.80;;
26098;SDS011;13860;52.370;6.764;2023-03-01T15:56:14;11.30;;;3.97;;
26098;SDS011;13860;52.370;6.764;2023-03-01T16:02:26;7.85;;;3.67;;
26098;SDS011;13860;52.370;6.764;2023-03-01T16:05:31;6.07;;;3.10;;
26098;SDS011;13860;52.370;6.764;2023-03-01T16:08:39;9.23;;;3.45;;
26098;SDS011;13860;52.370;6.764;2023-03-01T16:11:48;10.95;;;3.95;;
26098;SDS011;13860;52.370;6.764;2023-03-01T16:14:57;6.57;;;3.90;;
26098;SDS011;13860;52.370;6.764;2023-03-01T16:18:01;5.60;;;3.05;;
26098;SDS011;13860;52.370;6.764;2023-03-01T16:21:10;6.38;;;3.35;;
26098;SDS011;13860;52.370;6.764;2023-03-01T16:24:16;8.38;;;3.75;;
26098;SDS011;13860;52.370;6.764;2023-03-01T16:27:22;8.38;;;3.70;;
26098;SDS011;13860;52.370;6.764;2023-03-01T16:33:34;8.52;;;3.38;;
26098;SDS011;13860;52.370;6.764;2023-03-01T16:36:39;7.00;;;3.58;;
26098;SDS011;13860;52.370;6.764;2023-03-01T16:39:47;7.20;;;4.00;;
26098;SDS011;13860;52.370;6.764;2023-03-01T16:42:52;6.43;;;3.83;;
26098;SDS011;13860;52.370;6.764;2023-03-01T16:46:06;7.60;;;3.90;;
26098;SDS011;13860;52.370;6.764;2023-03-01T16:49:13;7.05;;;4.00;;
26098;SDS011;13860;52.370;6.764;2023-03-01T16:52:19;12.07;;;4.47;;
26098;SDS011;13860;52.370;6.764;2023-03-01T16:55:23;11.63;;;5.40;;
26098;SDS011;13860;52.370;6.764;2023-03-01T16:58:35;13.05;;;7.05;;
26098;SDS011;13860;52.370;6.764;2023-03-01T17:01:41;12.35;;;5.30;;
26098;SDS011;13860;52.370;6.764;2023-03-01T17:04:51;12.10;;;5.55;;
26098;SDS011;13860;52.370;6.764;2023-03-01T17:07:55;18.20;;;5.85;;
26098;SDS011;13860;52.370;6.764;2023-03-01T17:11:04;19.15;;;7.13;;
26098;SDS011;13860;52.370;6.764;2023-03-01T17:14:11;18.08;;;7.93;;
26098;SDS011;13860;52.370;6.764;2023-03-01T17:17:20;16.65;;;7.85;;
26098;SDS011;13860;52.370;6.764;2023-03-01T17:20:25;15.82;;;7.30;;
26098;SDS011;13860;52.370;6.764;2023-03-01T17:23:31;13.73;;;7.10;;
26098;SDS011;13860;52.370;6.764;2023-03-01T17:26:36;15.60;;;7.28;;
26098;SDS011;13860;52.370;6.764;2023-03-01T17:29:43;13.77;;;6.90;;
26098;SDS011;13860;52.370;6.764;2023-03-01T17:32:49;13.95;;;7.07;;
26098;SDS011;13860;52.370;6.764;2023-03-01T17:35:58;20.33;;;8.77;;
26098;SDS011;13860;52.370;6.764;2023-03-01T17:39:02;19.58;;;9.27;;
26098;SDS011;13860;52.370;6.764;2023-03-01T17:42:08;16.92;;;8.52;;
26098;SDS011;13860;52.370;6.764;2023-03-01T17:45:12;17.38;;;7.03;;
26098;SDS011;13860;52.370;6.764;2023-03-01T17:48:27;16.80;;;7.18;;
26098;SDS011;13860;52.370;6.764;2023-03-01T17:51:31;16.75;;;7.30;;
26098;SDS011;13860;52.370;6.764;2023-03-01T17:54:37;31.65;;;11.82;;
26098;SDS011;13860;52.370;6.764;2023-03-01T17:57:41;48.70;;;18.15;;
26098;SDS011;13860;52.370;6.764;2023-03-01T18:00:47;55.40;;;20.55;;
26098;SDS011;13860;52.370;6.764;2023-03-01T18:03:54;36.25;;;13.77;;
26098;SDS011;13860;52.370;6.764;2023-03-01T18:07:00;13.95;;;7.22;;
26098;SDS011;13860;52.370;6.764;2023-03-01T18:10:05;13.43;;;6.82;;
26098;SDS011;13860;52.370;6.764;2023-03-01T18:13:11;14.00;;;6.53;;
26098;SDS011;13860;52.370;6.764;2023-03-01T18:16:16;12.20;;;6.25;;
26098;SDS011;13860;52.370;6.764;2023-03-01T18:19:26;13.07;;;6.75;;
26098;SDS011;13860;52.370;6.764;2023-03-01T18:22:33;13.23;;;6.85;;
26098;SDS011;13860;52.370;6.764;2023-03-01T18:25:39;13.88;;;6.93;;
26098;SDS011;13860;52.370;6.764;2023-03-01T18:28:43;12.77;;;6.38;;
26098;SDS011;13860;52.370;6.764;2023-03-01T18:31:51;11.25;;;6.85;;
26098;SDS011;13860;52.370;6.764;2023-03-01T18:35:14;13.57;;;7.25;;
26098;SDS011;13860;52.370;6.764;2023-03-01T18:38:21;17.02;;;7.35;;
26098;SDS011;13860;52.370;6.764;2023-03-01T18:41:26;15.07;;;6.65;;
26098;SDS011;13860;52.370;6.764;2023-03-01T18:44:33;14.93;;;7.18;;
26098;SDS011;13860;52.370;6.764;2023-03-01T18:47:38;15.65;;;6.80;;
26098;SDS011;13860;52.370;6.764;2023-03-01T18:50:46;13.73;;;7.03;;
26098;SDS011;13860;52.370;6.764;2023-03-01T18:53:50;13.98;;;6.47;;
26098;SDS011;13860;52.370;6.764;2023-03-01T18:56:56;11.50;;;6.45;;
26098;SDS011;13860;52.370;6.764;2023-03-01T19:03:08;13.20;;;6.78;;
26098;SDS011;13860;52.370;6.764;2023-03-01T19:06:14;15.27;;;6.60;;
26098;SDS011;13860;52.370;6.764;2023-03-01T19:09:21;15.05;;;6.97;;
26098;SDS011;13860;52.370;6.764;2023-03-01T19:12:25;14.57;;;6.70;;
26098;SDS011;13860;52.370;6.764;2023-03-01T19:15:33;14.02;;;6.90;;
26098;SDS011;13860;52.370;6.764;2023-03-01T19:18:37;16.75;;;7.60;;
26098;SDS011;13860;52.370;6.764;2023-03-01T19:21:46;19.35;;;8.68;;